Time;durP1;ratioP1;P1;durP2;ratioP2;P2;SDS_P1;SDS_P2;PMS_P1;PMS_P2;Temp;Humidity;BMP_temperature;BMP_pressure;BME280_temperature;BME280_humidity;BME280_pressure;Samples;Min_cycle;Max_cycle;Signal;HPM_P1;HPM_P2
2022/02/11 00:01:00;;;;;;;14.32;8.07;;;;;;;1.37;66.36;95522.19;5110257;28;20030;-67
2022/02/11 00:06:37;;;;;;;13.48;7.88;;;;;;;1.16;67.20;95522.91;5111760;28;20096;-67
2022/02/11 00:09:03;;;;;;;14.88;7.75;;;;;;;1.10;67.04;95523.97;5111993;28;20063;-67
2022/02/11 00:11:38;;;;;;;11.88;7.90;;;;;;;0.95;67.44;95522.78;5094675;28;20082;-67
2022/02/11 00:14:05;;;;;;;11.02;7.18;;;;;;;0.92;67.98;95524.59;5111431;28;20231;-67
2022/02/11 00:16:30;;;;;;;10.90;7.10;;;;;;;0.78;67.74;95520.78;5111293;28;20065;-67
2022/02/11 00:18:59;;;;;;;13.40;7.30;;;;;;;0.69;68.49;95523.63;5094281;28;20120;-67
2022/02/11 00:21:25;;;;;;;12.40;7.70;;;;;;;0.76;68.57;95517.44;5111395;28;20118;-68
2022/02/11 00:23:51;;;;;;;13.48;7.45;;;;;;;0.80;68.92;95516.44;5112187;28;20044;-68
2022/02/11 00:26:16;;;;;;;26.58;11.68;;;;;;;0.86;68.96;95512.84;5111258;28;20034;-67
2022/02/11 00:34:00;;;;;;;12.52;8.52;;;;;;;0.81;69.02;95523.25;5112180;28;20421;-67
2022/02/11 00:36:41;;;;;;;9.65;7.43;;;;;;;0.68;68.86;95521.97;5110788;28;20039;-67
2022/02/11 01:03:06;;;;;;;11.80;6.90;;;;;;;0.62;70.08;95489.75;5096243;28;20131;-67
2022/02/11 01:05:32;;;;;;;12.65;7.43;;;;;;;0.69;69.91;95487.81;5111706;28;20032;-67
2022/02/11 01:07:57;;;;;;;12.25;7.18;;;;;;;0.75;69.17;95487.59;5110456;28;20039;-67
2022/02/11 01:10:23;;;;;;;11.30;6.57;;;;;;;0.88;68.30;95488.88;5110606;28;20419;-67
2022/02/11 01:12:49;;;;;;;10.48;6.18;;;;;;;0.91;68.77;95487.94;5110679;28;20034;-67
2022/02/11 01:15:14;;;;;;;8.90;5.75;;;;;;;1.01;68.13;95498.72;5111623;28;20036;-67
2022/02/11 01:17:51;;;;;;;10.60;6.78;;;;;;;1.04;68.10;95491.75;5110341;28;20053;-67
2022/02/11 01:20:25;;;;;;;10.13;6.15;;;;;;;1.11;67.71;95482.97;5111410;28;20031;-67
2022/02/11 01:54:33;;;;;;;27.25;14.93;;;;;;;0.80;67.62;95479.78;5087427;28;20472;-67
2022/02/11 02:24:18;;;;;;;27.35;14.60;;;;;;;-0.24;69.16;95461.00;5107245;28;20063;-68
2022/02/11 02:56:54;;;;;;;16.48;10.38;;;;;;;-0.83;70.84;95473.78;5107772;28;20440;-67
2022/02/11 04:55:37;;;;;;;26.48;12.77;;;;;;;-1.44;73.85;95466.88;5110936;28;20051;-68
2022/02/11 05:00:47;;;;;;;18.73;11.45;;;;;;;-1.35;73.83;95474.28;5110956;28;20096;-68
2022/02/11 05:03:12;;;;;;;20.50;12.60;;;;;;;-1.43;74.24;95476.19;5111675;28;20455;-68
2022/02/11 05:05:50;;;;;;;18.63;10.30;;;;;;;-1.46;73.98;95478.81;5092713;28;20463;-68
2022/02/11 05:08:25;;;;;;;22.02;12.63;;;;;;;-1.41;74.43;95483.81;5095309;28;20224;-68
2022/02/11 05:10:52;;;;;;;23.60;13.98;;;;;;;-1.38;74.33;95487.09;5093526;28;20106;-68
2022/02/11 05:13:18;;;;;;;20.42;11.80;;;;;;;-1.40;74.63;95485.47;5093505;28;20035;-68
2022/02/11 05:15:43;;;;;;;18.13;10.75;;;;;;;-1.35;74.10;95484.47;5076539;28;20035;-68
2022/02/11 05:18:09;;;;;;;15.38;10.20;;;;;;;-1.31;73.89;95495.47;5110213;28;20460;-68
2022/02/11 05:20:35;;;;;;;19.00;11.00;;;;;;;-1.37;73.71;95482.84;5111801;28;20427;-68
2022/02/11 05:23:07;;;;;;;15.48;10.20;;;;;;;-1.32;73.67;95486.13;5110133;28;20554;-68
2022/02/11 05:25:33;;;;;;;16.15;10.05;;;;;;;-1.37;73.50;95483.66;5111492;28;20054;-68
2022/02/11 05:27:59;;;;;;;19.35;9.45;;;;;;;-1.37;73.42;95476.03;5110079;28;20615;-69
2022/02/11 05:30:24;;;;;;;18.17;10.00;;;;;;;-1.37;73.47;95488.78;5094946;28;20036;-67
2022/02/11 05:32:49;;;;;;;21.48;11.60;;;;;;;-1.33;73.24;95483.63;5107399;28;20031;-67
2022/02/11 05:35:15;;;;;;;22.95;12.48;;;;;;;-1.37;73.48;95478.56;5111287;28;20050;-68
2022/02/11 05:37:40;;;;;;;21.55;9.75;;;;;;;-1.43;73.20;95486.38;5091431;28;20413;-67
2022/02/11 05:40:06;;;;;;;14.18;9.25;;;;;;;-1.46;73.20;95486.47;5111226;28;20470;-67
2022/02/11 05:42:31;;;;;;;16.48;9.82;;;;;;;-1.49;73.57;95489.09;5111150;28;20522;-68
2022/02/11 05:44:57;;;;;;;17.95;10.77;;;;;;;-1.46;73.56;95499.22;5111127;28;20028;-67
2022/02/11 05:47:22;;;;;;;16.27;9.80;;;;;;;-1.51;73.53;95502.75;5093041;28;20023;-67
2022/02/11 05:49:48;;;;;;;16.13;9.65;;;;;;;-1.62;73.33;95508.09;5089406;28;20035;-67
2022/02/11 05:52:14;;;;;;;15.05;9.70;;;;;;;-1.58;73.49;95515.66;5091059;28;20029;-67
2022/02/11 05:54:39;;;;;;;19.15;11.60;;;;;;;-1.69;74.11;95499.78;5090647;28;20032;-67
2022/02/11 05:57:05;;;;;;;16.23;9.65;;;;;;;-1.58;74.31;95515.66;5106606;28;20032;-67
2022/02/11 05:59:30;;;;;;;13.70;9.57;;;;;;;-1.55;74.12;95522.38;5089535;28;20470;-68
2022/02/11 06:01:56;;;;;;;13.63;9.10;;;;;;;-1.45;74.25;95522.97;5074049;28;20028;-68
2022/02/11 06:04:24;;;;;;;15.80;9.57;;;;;;;-1.44;74.29;95532.31;5110931;28;20474;-67
2022/02/11 06:06:53;;;;;;;13.07;8.45;;;;;;;-1.46;74.38;95528.97;5112511;28;20028;-68
2022/02/11 06:09:22;;;;;;;11.77;7.72;;;;;;;-1.36;74.52;95525.31;5110178;28;20084;-67
2022/02/11 06:11:47;;;;;;;15.07;9.23;;;;;;;-1.33;74.51;95526.97;5122092;27;20119;-68
2022/02/11 06:14:13;;;;;;;12.50;7.97;;;;;;;-1.26;74.65;95525.91;5111229;28;20421;-68
2022/02/11 06:16:39;;;;;;;12.07;8.90;;;;;;;-1.22;74.33;95522.44;5102239;27;20031;-68
2022/02/11 06:19:04;;;;;;;13.65;8.52;;;;;;;-1.20;73.77;95530.84;5116800;27;20519;-68
2022/02/11 06:21:30;;;;;;;16.55;10.27;;;;;;;-1.17;74.04;95523.97;5135841;27;20031;-68
2022/02/11 06:23:55;;;;;;;14.63;10.45;;;;;;;-1.18;73.88;95531.66;5121468;27;20051;-68
2022/02/11 06:26:24;;;;;;;19.08;11.02;;;;;;;-1.22;74.00;95514.78;5113691;28;20036;-68
2022/02/11 06:28:52;;;;;;;17.25;10.70;;;;;;;-1.17;74.29;95526.53;5096950;28;20088;-68
2022/02/11 06:31:18;;;;;;;23.92;13.85;;;;;;;-1.21;73.78;95534.28;5096832;28;20067;-68
2022/02/11 06:33:44;;;;;;;19.30;12.15;;;;;;;-1.18;73.85;95535.03;5103936;27;20492;-68
2022/02/11 06:36:09;;;;;;;18.83;11.77;;;;;;;-1.18;74.02;95529.09;5103044;28;20039;-69
2022/02/11 06:38:35;;;;;;;17.88;11.07;;;;;;;-1.18;74.34;95527.38;5121069;27;20023;-68
2022/02/11 06:41:00;;;;;;;16.05;9.75;;;;;;;-1.14;74.27;95534.09;5114493;27;20030;-68
2022/02/11 06:43:26;;;;;;;18.63;10.68;;;;;;;-1.14;74.45;95536.66;5121593;27;20040;-68
2022/02/11 06:45:52;;;;;;;27.52;16.55;;;;;;;-1.08;74.59;95525.44;5111933;27;20038;-67
2022/02/11 06:48:21;;;;;;;54.40;30.75;;;;;;;-1.02;75.44;95525.28;5112320;28;20026;-68
2022/02/11 06:50:47;;;;;;;45.10;27.63;;;;;;;-0.92;75.34;95530.97;5112832;28;20537;-68
2022/02/11 06:53:14;;;;;;;31.48;20.17;;;;;;;-0.90;75.19;95532.59;5111581;28;20023;-68
2022/02/11 06:55:40;;;;;;;21.75;14.05;;;;;;;-0.85;75.05;95529.09;5132084;27;20062;-68
2022/02/11 06:58:05;;;;;;;18.42;11.05;;;;;;;-0.88;74.76;95516.44;5133493;27;20050;-68
2022/02/11 07:00:31;;;;;;;18.90;11.63;;;;;;;-0.80;74.66;95525.56;5134836;27;20481;-68
2022/02/11 07:02:56;;;;;;;25.92;14.88;;;;;;;-0.75;74.56;95522.88;5133403;27;20027;-68
2022/02/11 07:05:23;;;;;;;20.48;12.50;;;;;;;-0.71;74.39;95524.47;5099219;27;20027;-68
2022/02/11 07:07:49;;;;;;;16.58;10.90;;;;;;;-0.61;74.45;95515.69;5131322;27;20023;-68
2022/02/11 07:10:14;;;;;;;17.65;10.85;;;;;;;-0.48;74.73;95519.53;5125930;27;20032;-68
2022/02/11 07:12:40;;;;;;;17.58;10.60;;;;;;;-0.25;74.07;95518.06;5114048;28;20040;-68
2022/02/11 07:15:06;;;;;;;16.17;9.93;;;;;;;0.09;74.14;95517.03;5095578;28;20034;-68
2022/02/11 07:17:33;;;;;;;16.98;8.90;;;;;;;0.29;72.55;95513.88;5115977;27;20023;-68
2022/02/11 07:19:58;;;;;;;16.63;8.95;;;;;;;0.61;71.88;95520.47;5098938;28;20040;-68
2022/02/11 07:22:24;;;;;;;17.38;10.35;;;;;;;0.84;71.29;95517.19;5086879;28;20026;-68
2022/02/11 07:24:51;;;;;;;20.38;10.80;;;;;;;1.15;70.73;95522.09;5101841;27;20051;-68
2022/02/11 07:27:17;;;;;;;39.88;22.67;;;;;;;1.44;70.55;95510.81;5106418;27;20035;-68
2022/02/11 07:29:42;;;;;;;66.80;35.95;;;;;;;1.72;70.80;95518.31;5111386;28;20024;-68
2022/02/11 07:32:10;;;;;;;59.13;33.30;;;;;;;2.08;69.57;95517.81;5113323;28;20038;-68
2022/02/11 07:34:36;;;;;;;46.47;25.60;;;;;;;2.31;68.28;95522.06;5107008;28;20034;-68
2022/02/11 07:37:02;;;;;;;31.10;17.02;;;;;;;2.71;66.69;95514.53;5102539;28;20028;-68
2022/02/11 07:39:29;;;;;;;30.13;19.10;;;;;;;3.09;66.14;95510.34;5112179;28;20028;-69
2022/02/11 07:41:55;;;;;;;31.50;19.27;;;;;;;3.70;63.75;95510.25;5112154;28;20111;-68
2022/02/11 07:44:20;;;;;;;29.73;17.75;;;;;;;3.87;62.73;95504.34;5115006;27;20035;-70
2022/02/11 07:46:46;;;;;;;29.65;20.20;;;;;;;3.97;62.68;95489.34;5125803;27;20622;-70
2022/02/11 07:49:11;;;;;;;31.30;20.15;;;;;;;4.44;61.75;95502.53;5108191;27;20084;-70
2022/02/11 07:51:37;;;;;;;20.33;14.57;;;;;;;5.02;59.42;95500.63;5113471;27;20027;-70
2022/02/11 07:54:02;;;;;;;26.90;17.17;;;;;;;5.52;58.43;95505.75;5099153;28;20035;-70
2022/02/11 07:56:27;;;;;;;23.95;16.15;;;;;;;5.80;57.23;95497.41;5099859;27;20455;-70
2022/02/11 07:58:53;;;;;;;31.10;20.52;;;;;;;6.18;56.38;95499.69;5093451;28;20031;-70
2022/02/11 08:01:20;;;;;;;28.58;20.55;;;;;;;6.58;55.57;95497.50;5112398;27;20046;-69
2022/02/11 08:03:46;;;;;;;41.67;25.92;;;;;;;6.83;55.02;95499.50;5108645;28;20019;-71
2022/02/11 08:06:13;;;;;;;40.58;24.98;;;;;;;7.08;54.40;95498.94;5086977;27;20051;-70
2022/02/11 08:08:38;;;;;;;56.83;33.63;;;;;;;7.42;53.05;95504.69;5109170;27;20437;-71
2022/02/11 08:11:04;;;;;;;55.08;33.05;;;;;;;7.73;52.32;95498.50;5097198;28;20033;-71
2022/02/11 08:13:31;;;;;;;65.80;38.65;;;;;;;7.91;51.83;95493.13;5064147;28;20081;-71
2022/02/11 08:15:56;;;;;;;64.00;37.35;;;;;;;7.94;51.78;95495.53;5080735;28;20036;-70
2022/02/11 08:18:22;;;;;;;60.38;36.63;;;;;;;7.85;52.46;95486.59;5099765;27;20042;-70
2022/02/11 08:20:48;;;;;;;56.45;35.53;;;;;;;7.70;52.43;95487.53;5108998;27;20026;-70
2022/02/11 08:23:14;;;;;;;58.45;35.95;;;;;;;7.65;53.05;95492.16;5094668;27;20039;-70
2022/02/11 08:25:39;;;;;;;72.22;39.97;;;;;;;7.57;53.02;95488.25;5088143;28;20035;-70
2022/02/11 08:28:05;;;;;;;67.80;39.10;;;;;;;7.45;53.24;95481.25;5110217;27;20032;-69
2022/02/11 08:30:30;;;;;;;59.92;36.28;;;;;;;7.29;53.52;95485.66;5114261;27;20390;-69
2022/02/11 08:32:56;;;;;;;63.70;34.88;;;;;;;7.13;54.50;95488.31;5106417;27;20040;-69
2022/02/11 08:35:21;;;;;;;56.83;34.63;;;;;;;7.08;54.96;95482.59;5110783;27;20019;-69
2022/02/11 08:37:47;;;;;;;60.70;37.20;;;;;;;6.92;55.97;95474.91;5107880;27;20023;-70
2022/02/11 08:40:12;;;;;;;59.38;36.00;;;;;;;6.91;56.44;95473.25;5106936;28;20028;-68
2022/02/11 08:42:38;;;;;;;59.15;35.50;;;;;;;6.98;56.37;95471.13;5098921;28;20027;-70
2022/02/11 08:45:05;;;;;;;53.03;34.42;;;;;;;7.04;56.57;95475.94;5102125;28;20040;-70
2022/02/11 08:47:32;;;;;;;60.00;38.75;;;;;;;7.06;56.28;95469.75;5074795;28;20111;-70
2022/02/11 08:49:59;;;;;;;60.55;37.38;;;;;;;7.01;57.01;95468.38;5088014;28;20040;-69
2022/02/11 08:52:25;;;;;;;63.78;39.67;;;;;;;7.03;57.61;95466.53;5105608;27;20032;-70
2022/02/11 08:54:52;;;;;;;70.50;40.00;;;;;;;6.99;57.01;95468.44;5106285;28;20034;-69
2022/02/11 08:57:17;;;;;;;61.60;38.20;;;;;;;6.82;57.10;95466.00;5094634;28;20455;-69
2022/02/11 08:59:43;;;;;;;72.18;39.40;;;;;;;6.72;57.69;95456.22;5098164;28;20028;-70
2022/02/11 09:02:11;;;;;;;57.15;35.40;;;;;;;6.63;58.11;95454.19;5086803;28;20024;-69
2022/02/11 09:04:40;;;;;;;67.97;37.45;;;;;;;6.54;58.72;95459.03;5072644;28;20040;-69
2022/02/11 09:07:08;;;;;;;79.68;43.20;;;;;;;6.49;59.00;95454.97;5072005;28;20039;-70
2022/02/11 09:09:33;;;;;;;80.10;40.40;;;;;;;6.51;58.94;95460.03;5108234;28;20051;-69
2022/02/11 09:11:59;;;;;;;72.95;41.38;;;;;;;6.58;58.78;95458.78;5109268;28;20104;-69
2022/02/11 09:14:25;;;;;;;63.17;35.42;;;;;;;6.60;58.91;95456.09;5097948;28;20463;-69
2022/02/11 09:16:50;;;;;;;57.90;36.95;;;;;;;6.67;58.57;95455.66;5104848;28;20462;-70
2022/02/11 09:19:16;;;;;;;66.60;39.20;;;;;;;6.75;58.11;95452.63;5108453;28;20425;-70
2022/02/11 09:21:41;;;;;;;61.15;37.85;;;;;;;6.80;58.12;95448.03;5093085;28;20429;-70
2022/02/11 09:24:07;;;;;;;65.85;36.40;;;;;;;6.85;57.60;95448.63;5088580;28;20051;-70
2022/02/11 09:26:33;;;;;;;61.53;36.30;;;;;;;6.96;57.77;95450.53;5100741;28;20433;-70
2022/02/11 09:29:03;;;;;;;63.15;31.85;;;;;;;7.01;56.80;95439.97;5108483;28;20028;-70
2022/02/11 09:31:28;;;;;;;57.25;34.00;;;;;;;6.95;56.78;95451.47;5080245;28;20040;-70
2022/02/11 09:34:03;;;;;;;50.00;27.70;;;;;;;6.93;56.80;95451.56;5071514;28;20452;-70
2022/02/11 09:36:35;;;;;;;52.15;28.42;;;;;;;6.96;56.83;95440.22;5106897;28;20047;-70
2022/02/11 09:39:05;;;;;;;43.10;25.60;;;;;;;7.00;56.48;95441.72;5109087;28;20044;-70
2022/02/11 09:41:31;;;;;;;36.90;23.83;;;;;;;7.04;56.12;95435.44;5083574;28;20036;-70
2022/02/11 09:44:00;;;;;;;39.55;22.58;;;;;;;7.14;55.56;95431.38;5087920;28;20035;-70
2022/02/11 09:46:28;;;;;;;34.55;21.20;;;;;;;7.20;55.46;95424.19;5088320;28;20035;-70
2022/02/11 09:48:54;;;;;;;36.55;22.25;;;;;;;7.24;55.43;95425.66;5086843;28;20107;-71
2022/02/11 09:51:19;;;;;;;37.33;22.10;;;;;;;7.30;56.12;95420.13;5100961;28;20043;-70
2022/02/11 09:53:45;;;;;;;38.13;22.48;;;;;;;7.41;56.00;95420.34;5109753;28;20034;-70
2022/02/11 09:56:10;;;;;;;36.55;22.20;;;;;;;7.50;55.57;95419.75;5100824;27;20031;-69
2022/02/11 09:58:36;;;;;;;41.72;21.00;;;;;;;7.58;55.69;95424.47;5107840;28;20087;-69
2022/02/11 10:01:01;;;;;;;38.80;23.45;;;;;;;7.53;55.45;95404.06;5105234;28;20020;-69
2022/02/11 10:03:30;;;;;;;44.30;24.48;;;;;;;7.64;55.61;95410.34;5112998;28;20088;-70
2022/02/11 10:05:57;;;;;;;43.67;26.20;;;;;;;7.70;55.68;95402.19;5106967;27;20434;-69
2022/02/11 10:08:28;;;;;;;45.05;26.90;;;;;;;7.82;55.45;95404.00;5061657;28;20492;-70
2022/02/11 10:10:55;;;;;;;42.05;24.45;;;;;;;7.88;55.56;95405.38;5111305;27;20042;-69
2022/02/11 10:13:28;;;;;;;48.50;27.40;;;;;;;7.88;55.08;95398.44;5113205;28;20020;-69
2022/02/11 10:15:58;;;;;;;38.75;21.73;;;;;;;7.87;55.49;95391.63;5086978;28;20513;-69
2022/02/11 10:18:28;;;;;;;36.85;22.13;;;;;;;7.96;55.67;95393.63;5092136;28;20080;-69
2022/02/11 10:20:57;;;;;;;44.60;22.02;;;;;;;7.86;55.38;95389.97;5089242;27;20102;-69
2022/02/11 10:23:28;;;;;;;43.58;24.58;;;;;;;7.88;55.70;95375.16;5070115;28;20421;-70
2022/02/11 10:26:09;;;;;;;39.28;23.73;;;;;;;7.96;56.16;95387.63;5116634;27;20514;-71
2022/02/11 10:28:39;;;;;;;36.88;22.67;;;;;;;7.94;55.84;95367.03;5090244;28;20089;-70
2022/02/11 10:31:34;;;;;;;40.42;22.77;;;;;;;8.15;56.07;95370.00;5101230;28;20063;-71
2022/02/11 10:34:11;;;;;;;45.45;24.13;;;;;;;8.14;56.06;95354.56;5094051;28;20035;-71
2022/02/11 10:36:40;;;;;;;42.38;23.02;;;;;;;8.31;56.10;95363.84;5113108;28;20172;-71
2022/02/11 10:39:09;;;;;;;44.75;24.05;;;;;;;8.36;55.60;95352.25;5110329;28;20015;-71
2022/02/11 10:41:40;;;;;;;43.25;23.58;;;;;;;8.45;56.12;95356.03;5107467;27;20479;-71
2022/02/11 10:44:11;;;;;;;44.95;23.75;;;;;;;8.43;56.15;95350.94;5095681;28;20494;-71
2022/02/11 10:46:57;;;;;;;34.33;21.00;;;;;;;8.46;56.44;95336.94;5076030;28;20449;-71
2022/02/11 10:49:47;;;;;;;32.00;21.15;;;;;;;8.45;56.82;95330.13;5087438;28;20012;-71
2022/02/11 10:52:22;;;;;;;46.95;26.27;;;;;;;8.63;56.44;95333.25;5089868;28;20084;-71
2022/02/11 10:54:49;;;;;;;40.38;23.13;;;;;;;8.75;56.17;95335.03;5112444;27;20516;-70
2022/02/11 10:57:15;;;;;;;54.72;28.15;;;;;;;8.89;55.87;95329.75;5088864;28;20224;-71
2022/02/11 10:59:44;;;;;;;46.45;26.17;;;;;;;8.93;55.59;95320.81;5094166;28;20020;-70
2022/02/11 11:02:17;;;;;;;44.17;24.23;;;;;;;9.00;55.11;95310.88;5103145;27;20463;-69
2022/02/11 11:04:46;;;;;;;33.50;19.95;;;;;;;9.14;54.37;95322.88;5112190;28;20386;-70
2022/02/11 11:07:13;;;;;;;37.72;21.08;;;;;;;9.27;53.76;95328.84;5093343;28;20108;-70
2022/02/11 11:09:38;;;;;;;39.10;20.10;;;;;;;9.29;52.53;95315.78;5108369;28;20023;-70
2022/02/11 11:12:05;;;;;;;32.80;17.95;;;;;;;9.36;52.53;95311.81;5095466;28;20019;-70
2022/02/11 11:14:30;;;;;;;27.05;16.23;;;;;;;9.46;51.35;95309.44;5109241;28;20081;-70
2022/02/11 11:17:00;;;;;;;27.98;16.60;;;;;;;9.57;50.37;95310.31;5099542;28;20035;-70
2022/02/11 11:19:26;;;;;;;30.92;14.88;;;;;;;9.65;48.92;95304.59;5085074;28;20077;-71
2022/02/11 11:22:16;;;;;;;25.73;15.13;;;;;;;9.80;48.54;95300.06;5076219;28;20419;-70
2022/02/11 11:24:49;;;;;;;22.52;12.25;;;;;;;9.81;47.84;95293.94;5075355;28;20128;-70
2022/02/11 11:27:52;;;;;;;20.80;12.40;;;;;;;9.93;47.17;95284.44;5109048;28;20112;-71
2022/02/11 11:30:37;;;;;;;24.83;14.43;;;;;;;9.97;46.35;95285.84;5105617;28;20036;-70
2022/02/11 11:33:06;;;;;;;28.73;16.15;;;;;;;10.02;45.75;95287.19;5097618;28;20112;-70
2022/02/11 11:35:31;;;;;;;31.17;17.75;;;;;;;10.09;45.89;95271.19;5095003;28;20032;-70
2022/02/11 11:38:16;;;;;;;36.22;19.13;;;;;;;10.19;45.09;95269.53;5091646;28;20032;-71
2022/02/11 11:41:13;;;;;;;28.13;18.10;;;;;;;10.20;45.09;95261.66;5086493;27;20114;-70
2022/02/11 11:43:45;;;;;;;27.13;18.95;;;;;;;10.33;44.10;95258.16;5087830;28;20028;-70
2022/02/11 11:46:14;;;;;;;47.95;18.48;;;;;;;10.44;44.43;95256.41;5082233;28;20042;-70
2022/02/11 11:48:52;;;;;;;27.30;17.00;;;;;;;10.51;44.16;95254.19;5110239;28;20404;-70
2022/02/11 11:51:17;;;;;;;36.03;20.98;;;;;;;10.58;44.42;95238.97;5110236;28;20043;-70
2022/02/11 11:53:43;;;;;;;36.40;20.80;;;;;;;10.67;44.22;95241.69;5108362;28;20401;-70
2022/02/11 11:56:30;;;;;;;33.75;21.00;;;;;;;10.74;44.14;95237.66;5105998;27;20042;-70
2022/02/11 11:58:56;;;;;;;32.40;20.13;;;;;;;10.78;43.91;95227.88;5098862;28;20022;-70
2022/02/11 12:01:21;;;;;;;32.70;20.08;;;;;;;10.83;43.58;95223.13;5071948;28;20029;-70
2022/02/11 12:04:24;;;;;;;28.27;19.73;;;;;;;10.94;43.37;95222.31;5105240;28;20433;-70
2022/02/11 12:07:10;;;;;;;30.70;19.77;;;;;;;11.00;42.71;95214.03;5107448;27;20051;-70
2022/02/11 12:09:35;;;;;;;31.60;18.95;;;;;;;10.99;43.16;95214.97;5094609;28;20031;-70
2022/02/11 12:12:04;;;;;;;32.25;20.05;;;;;;;11.10;42.98;95217.56;5085823;28;20048;-72
2022/02/11 12:14:31;;;;;;;32.42;19.67;;;;;;;11.21;42.85;95206.31;5089931;28;20058;-70
2022/02/11 12:16:57;;;;;;;35.97;21.60;;;;;;;11.17;41.97;95197.09;5071201;28;20065;-70
2022/02/11 12:19:23;;;;;;;34.00;20.58;;;;;;;11.29;41.08;95197.94;5090535;28;20028;-70
2022/02/11 12:21:48;;;;;;;38.08;19.98;;;;;;;11.35;41.68;95200.84;5084521;28;20043;-70
2022/02/11 12:29:58;;;;;;;31.00;17.70;;;;;;;11.62;40.55;95192.63;5108544;28;20123;-70
2022/02/11 12:32:27;;;;;;;29.40;19.35;;;;;;;11.66;40.20;95189.75;5112704;27;20016;-70
2022/02/11 12:34:57;;;;;;;32.33;19.27;;;;;;;11.68;40.97;95186.09;5108348;28;20144;-70
2022/02/11 12:37:28;;;;;;;28.08;17.90;;;;;;;11.72;40.33;95184.06;5086205;28;20081;-71
2022/02/11 12:40:10;;;;;;;25.67;18.15;;;;;;;11.75;41.05;95178.59;5071671;28;20024;-70
2022/02/11 12:42:41;;;;;;;33.95;21.08;;;;;;;11.77;41.78;95174.09;5081690;28;20118;-70
2022/02/11 12:45:09;;;;;;;41.25;22.30;;;;;;;11.89;42.16;95183.53;5099944;27;20128;-70
2022/02/11 12:47:34;;;;;;;39.80;23.08;;;;;;;11.89;42.29;95175.72;5089901;28;20039;-70
2022/02/11 12:50:00;;;;;;;38.95;24.17;;;;;;;11.96;41.75;95176.88;5077915;28;20036;-70
2022/02/11 12:52:29;;;;;;;38.22;21.67;;;;;;;11.98;42.36;95169.78;5088911;28;20070;-70
2022/02/11 12:55:03;;;;;;;37.72;20.45;;;;;;;12.02;40.71;95170.34;5089358;28;20189;-70
2022/02/11 12:57:29;;;;;;;31.17;19.48;;;;;;;12.03;40.21;95159.78;5098114;28;20099;-72
2022/02/11 12:59:57;;;;;;;30.23;19.55;;;;;;;11.98;40.74;95154.16;5083687;28;20111;-72
2022/02/11 13:02:29;;;;;;;33.00;20.80;;;;;;;12.04;40.94;95158.84;5097026;27;20023;-72
2022/02/11 13:05:21;;;;;;;35.75;22.15;;;;;;;12.06;40.32;95164.75;5088843;28;20032;-72
2022/02/11 13:08:19;;;;;;;32.60;17.77;;;;;;;12.10;38.41;95151.47;5101706;28;20484;-70
2022/02/11 13:10:46;;;;;;;28.52;17.88;;;;;;;12.13;39.17;95146.00;5114901;27;20062;-70
2022/02/11 13:13:16;;;;;;;31.38;18.35;;;;;;;12.17;39.39;95153.41;5096385;28;20414;-70
2022/02/11 13:15:45;;;;;;;34.75;20.38;;;;;;;12.13;39.10;95153.81;5106649;27;20031;-70
2022/02/11 13:18:10;;;;;;;34.53;20.05;;;;;;;12.16;39.52;95161.38;5088884;28;20078;-70
2022/02/11 13:20:40;;;;;;;31.27;20.35;;;;;;;12.12;38.35;95150.41;5093619;28;20028;-70
2022/02/11 13:23:06;;;;;;;33.53;21.38;;;;;;;12.17;39.09;95147.38;5105396;28;20187;-70
2022/02/11 13:25:32;;;;;;;29.20;19.98;;;;;;;12.20;39.57;95149.72;5112363;28;20146;-70
2022/02/11 13:27:57;;;;;;;35.67;21.17;;;;;;;12.22;40.15;95143.44;5089678;28;20031;-70
2022/02/11 13:30:31;;;;;;;42.10;23.02;;;;;;;12.18;39.88;95139.47;5090487;28;20538;-70
2022/02/11 13:32:59;;;;;;;43.10;24.75;;;;;;;12.19;39.58;95135.88;5099507;28;20084;-70
2022/02/11 13:35:24;;;;;;;31.83;20.98;;;;;;;12.12;42.25;95139.97;5094236;27;20028;-71
2022/02/11 13:37:55;;;;;;;34.80;21.35;;;;;;;12.05;40.03;95139.66;5092486;28;20039;-70
2022/02/11 13:40:25;;;;;;;;;;;;;;;12.06;42.58;95148.28;5075640;28;20055;-70
2022/02/11 13:42:54;;;;;;;36.35;19.25;;;;;;;11.96;42.71;95148.22;5097693;28;19912;-70
2022/02/11 13:45:20;;;;;;;29.85;18.88;;;;;;;11.79;43.47;95141.78;5091266;28;20031;-70
2022/02/11 13:48:00;;;;;;;31.67;21.10;;;;;;;11.86;41.92;95149.94;5102879;28;20459;-70
2022/02/11 13:50:25;;;;;;;37.70;21.40;;;;;;;11.74;43.03;95143.94;5093399;28;20454;-70
2022/02/11 13:53:04;;;;;;;34.30;20.45;;;;;;;11.70;43.70;95142.56;5103495;28;20042;-70
2022/02/11 13:55:30;;;;;;;37.92;21.77;;;;;;;11.61;43.47;95145.88;5112899;28;20446;-70
2022/02/11 13:57:56;;;;;;;33.72;21.88;;;;;;;11.56;43.95;95141.09;5091618;28;20040;-70
2022/02/11 14:00:37;;;;;;;33.90;21.45;;;;;;;11.47;43.79;95141.81;5085760;28;20039;-70
2022/02/11 14:03:05;;;;;;;38.70;24.35;;;;;;;11.45;43.37;95128.13;5090983;28;20054;-70
2022/02/11 14:05:53;;;;;;;44.10;23.70;;;;;;;11.44;44.25;95134.25;5071352;28;20059;-70
2022/02/11 14:08:19;;;;;;;40.85;24.42;;;;;;;11.36;43.87;95131.44;5088074;28;20050;-70
2022/02/11 14:10:46;;;;;;;35.75;21.65;;;;;;;11.29;45.10;95131.13;5094409;28;20035;-70
2022/02/11 14:13:12;;;;;;;38.05;21.95;;;;;;;11.15;45.67;95128.81;5088919;28;20020;-70
2022/02/11 14:15:39;;;;;;;41.33;23.38;;;;;;;11.07;45.88;95124.22;5101811;28;20080;-70
2022/02/11 14:18:05;;;;;;;43.35;24.35;;;;;;;10.96;46.09;95129.44;5078518;28;20042;-71
2022/02/11 14:20:30;;;;;;;42.55;23.92;;;;;;;10.86;45.90;95128.50;5074589;28;20023;-70
2022/02/11 14:22:56;;;;;;;38.53;24.33;;;;;;;10.84;46.13;95133.03;5086208;28;20039;-70
2022/02/11 14:25:21;;;;;;;38.80;23.20;;;;;;;10.79;46.38;95135.16;5111564;28;20493;-70
2022/02/11 14:27:47;;;;;;;38.60;22.42;;;;;;;10.69;46.32;95128.06;5108098;28;20031;-70
2022/02/11 14:30:12;;;;;;;43.20;23.80;;;;;;;10.60;46.78;95133.16;5110110;28;20027;-70
2022/02/11 14:32:38;;;;;;;37.15;23.42;;;;;;;10.49;46.96;95131.41;5112215;28;20028;-71
2022/02/11 14:35:04;;;;;;;37.33;23.60;;;;;;;10.41;46.81;95121.59;5092204;28;20097;-76
2022/02/11 14:37:29;;;;;;;43.53;23.85;;;;;;;10.37;46.76;95134.94;5075722;27;20028;-72
2022/02/11 14:39:55;;;;;;;38.75;22.70;;;;;;;10.27;47.75;95133.03;5114109;27;20088;-72
2022/02/11 14:42:20;;;;;;;37.17;23.42;;;;;;;10.15;48.29;95133.94;5098359;28;20024;-72
2022/02/11 14:44:46;;;;;;;39.83;24.63;;;;;;;10.04;48.45;95126.16;5119067;27;20401;-70
2022/02/11 14:47:13;;;;;;;35.08;22.75;;;;;;;9.91;48.78;95126.25;5103150;27;20052;-71
2022/02/11 14:49:39;;;;;;;39.97;23.60;;;;;;;9.80;49.09;95118.44;5094646;28;20120;-70
2022/02/11 14:52:07;;;;;;;40.60;24.10;;;;;;;9.66;49.10;95116.88;5072135;28;20055;-71
2022/02/11 14:54:32;;;;;;;36.97;23.23;;;;;;;9.57;49.29;95127.94;5116746;27;20102;-69
2022/02/11 14:56:58;;;;;;;37.95;22.80;;;;;;;9.51;49.13;95120.63;5097647;28;20085;-70
2022/02/11 14:59:24;;;;;;;36.80;22.60;;;;;;;9.40;49.70;95124.00;5092327;28;20063;-69
2022/02/11 15:01:49;;;;;;;38.65;21.98;;;;;;;9.36;49.80;95120.81;5091826;27;20618;-69
2022/02/11 15:04:17;;;;;;;35.58;21.05;;;;;;;9.17;49.80;95123.91;5121388;27;20038;-69
2022/02/11 15:06:46;;;;;;;34.63;20.25;;;;;;;9.11;50.63;95131.28;5091035;28;20032;-71
2022/02/11 15:09:11;;;;;;;32.70;19.08;;;;;;;8.99;50.97;95124.38;5082408;28;20038;-68
2022/02/11 15:11:37;;;;;;;32.13;19.75;;;;;;;8.79;51.43;95128.41;5105489;27;20055;-69
2022/02/11 15:14:02;;;;;;;32.17;20.25;;;;;;;8.64;51.90;95125.13;5113681;27;20081;-70
2022/02/11 15:16:27;;;;;;;41.47;22.13;;;;;;;8.56;51.51;95117.06;5097839;27;20416;-70
2022/02/11 15:18:53;;;;;;;61.83;32.58;;;;;;;8.37;52.52;95115.72;5112392;27;20398;-69
2022/02/11 15:21:19;;;;;;;49.45;26.15;;;;;;;8.34;52.86;95131.47;5107212;27;20020;-70
2022/02/11 15:23:46;;;;;;;33.78;19.17;;;;;;;8.20;53.33;95123.84;5073359;27;20422;-70
2022/02/11 15:26:11;;;;;;;34.80;18.63;;;;;;;8.14;53.16;95129.44;5087607;27;20519;-69
2022/02/11 15:28:38;;;;;;;31.92;18.15;;;;;;;8.07;52.33;95135.00;5097447;27;20087;-70
2022/02/11 15:31:04;;;;;;;34.05;19.25;;;;;;;8.09;51.98;95134.09;5101050;27;20651;-71
2022/02/11 15:33:30;;;;;;;30.13;19.30;;;;;;;8.12;52.22;95137.28;5072539;28;20477;-69